createdAt,value
2022-10-26T00:00:34.099Z,8.88
2022-10-26T00:03:21.966Z,9.32
2022-10-26T00:06:20.839Z,8.07
2022-10-26T00:09:08.359Z,8.00
2022-10-26T00:11:56.021Z,8.77
2022-10-26T00:14:43.694Z,7.35
2022-10-26T00:17:31.477Z,8.85
2022-10-26T00:20:19.161Z,8.35
2022-10-26T00:23:06.934Z,8.13
2022-10-26T00:25:55.946Z,8.30
2022-10-26T00:28:43.538Z,8.20
2022-10-26T00:31:31.239Z,7.80
2022-10-26T00:34:18.948Z,8.43
2022-10-26T00:37:09.721Z,7.72
2022-10-26T00:40:03.137Z,7.68
2022-10-26T00:42:51.109Z,7.87
2022-10-26T00:45:42.740Z,7.78
2022-10-26T00:48:35.861Z,7.70
2022-10-26T00:51:37.386Z,7.38
2022-10-26T00:54:25.336Z,7.57
2022-10-26T00:57:16.364Z,7.55
2022-10-26T01:00:07.710Z,6.95
2022-10-26T01:02:57.833Z,6.95
2022-10-26T01:05:47.819Z,7.53
2022-10-26T01:08:35.733Z,7.53
2022-10-26T01:11:23.645Z,8.27
2022-10-26T01:14:14.230Z,8.40
2022-10-26T01:17:25.598Z,8.02
2022-10-26T01:20:41.698Z,7.47
2022-10-26T01:24:00.145Z,7.35
2022-10-26T01:27:13.585Z,8.20
2022-10-26T01:30:22.133Z,7.88
2022-10-26T01:33:20.702Z,7.40
2022-10-26T01:36:24.959Z,7.32
2022-10-26T01:39:20.849Z,6.53
2022-10-26T01:42:11.060Z,7.22
2022-10-26T01:45:04.514Z,6.28
2022-10-26T01:47:54.409Z,6.78
2022-10-26T01:50:45.757Z,7.35
2022-10-26T01:53:33.911Z,7.10
2022-10-26T01:56:25.579Z,6.65
2022-10-26T01:59:13.293Z,7.00
2022-10-26T02:02:31.599Z,7.20
2022-10-26T02:05:51.009Z,7.45
2022-10-26T02:08:38.879Z,7.22
2022-10-26T02:11:56.138Z,7.15
2022-10-26T02:14:58.691Z,6.93
2022-10-26T02:17:59.328Z,7.93
2022-10-26T02:20:54.968Z,6.82
2022-10-26T02:23:48.149Z,7.15
2022-10-26T02:26:38.031Z,7.10
2022-10-26T02:29:26.701Z,6.65
2022-10-26T02:32:15.238Z,6.78
2022-10-26T02:35:05.423Z,6.38
2022-10-26T02:37:54.664Z,6.00
2022-10-26T02:40:43.005Z,6.25
2022-10-26T02:43:36.130Z,5.47
2022-10-26T02:46:28.922Z,5.70
2022-10-26T02:49:17.179Z,5.55
2022-10-26T02:52:21.339Z,6.25
2022-10-26T02:55:11.800Z,5.82
2022-10-26T02:58:03.668Z,6.18
2022-10-26T03:00:53.451Z,7.63
2022-10-26T03:03:41.899Z,6.85
2022-10-26T03:06:30.134Z,6.70
2022-10-26T03:09:20.157Z,6.28
2022-10-26T03:12:13.314Z,6.78
2022-10-26T03:15:01.268Z,7.13
2022-10-26T03:17:49.386Z,7.60
2022-10-26T03:20:37.508Z,7.05
2022-10-26T03:23:25.367Z,7.85
2022-10-26T03:26:12.859Z,7.53
2022-10-26T03:29:03.831Z,7.45
2022-10-26T03:31:54.287Z,5.38
2022-10-26T03:34:42.323Z,6.65
2022-10-26T03:37:30.384Z,5.85
2022-10-26T03:40:18.680Z,6.38
2022-10-26T03:43:08.424Z,6.57
2022-10-26T03:45:56.198Z,6.03
2022-10-26T03:48:43.899Z,6.10
2022-10-26T03:51:31.976Z,5.65
2022-10-26T03:54:19.876Z,6.03
2022-10-26T03:57:12.862Z,5.50
2022-10-26T04:00:00.872Z,5.38
2022-10-26T04:02:58.533Z,6.32
2022-10-26T04:05:46.846Z,5.78
2022-10-26T04:08:41.620Z,5.60
2022-10-26T04:11:35.362Z,5.50
2022-10-26T04:14:25.751Z,5.75
2022-10-26T04:17:17.251Z,5.35
2022-10-26T04:20:05.831Z,4.93
2022-10-26T04:23:05.182Z,5.63
2022-10-26T04:25:59.298Z,6.07
2022-10-26T04:28:50.638Z,7.25
2022-10-26T04:31:38.986Z,6.60
2022-10-26T04:34:26.952Z,5.72
2022-10-26T04:37:15.038Z,6.85
2022-10-26T04:42:56.691Z,6.57
2022-10-26T04:45:44.862Z,5.95
2022-10-26T04:48:38.207Z,5.63
2022-10-26T04:51:28.745Z,5.80
2022-10-26T04:54:19.268Z,6.70
2022-10-26T04:57:07.867Z,6.32
2022-10-26T04:59:56.060Z,6.95
2022-10-26T05:02:44.301Z,7.15
2022-10-26T05:05:36.733Z,6.60
2022-10-26T05:08:28.200Z,6.75
2022-10-26T05:11:19.885Z,6.85
2022-10-26T05:14:09.992Z,6.47
2022-10-26T05:17:01.525Z,6.15
2022-10-26T05:20:03.733Z,6.93
2022-10-26T05:27:32.366Z,6.97
2022-10-26T05:29:54.299Z,6.35
2022-10-26T15:57:48.730Z,4.50
2022-10-26T16:01:04.118Z,5.03
2022-10-26T16:07:50.023Z,7.05
2022-10-26T16:17:17.965Z,5.35
2022-10-26T16:20:30.003Z,4.30
2022-10-26T16:23:37.108Z,4.60
2022-10-26T16:26:41.016Z,5.25
2022-10-26T16:29:43.061Z,5.18
2022-10-26T16:32:45.237Z,5.15
2022-10-26T16:47:15.885Z,6.45
2022-10-26T16:50:04.941Z,7.28
2022-10-26T16:52:52.878Z,6.53
2022-10-26T16:59:16.796Z,6.72
2022-10-26T17:02:12.574Z,7.05
2022-10-26T17:05:06.897Z,6.82
2022-10-26T17:07:55.943Z,9.30
2022-10-26T17:10:46.163Z,8.00
2022-10-26T17:13:35.706Z,8.15
2022-10-26T17:16:27.760Z,8.60
2022-10-26T17:19:17.184Z,8.45
2022-10-26T17:22:08.788Z,8.30
2022-10-26T17:24:57.171Z,8.07
2022-10-26T17:27:49.682Z,7.65
2022-10-26T17:30:38.109Z,8.82
2022-10-26T17:33:28.245Z,8.88
2022-10-26T17:36:17.079Z,8.55
2022-10-26T17:46:24.925Z,7.93
2022-10-26T17:52:18.529Z,9.45
2022-10-26T17:55:07.114Z,8.82
2022-10-26T17:58:01.916Z,7.65
2022-10-26T18:01:22.673Z,8.70
2022-10-26T18:04:26.468Z,8.50
2022-10-26T18:07:14.764Z,8.00
2022-10-26T18:10:13.758Z,9.07
2022-10-26T18:13:11.142Z,9.93
2022-10-26T18:16:21.659Z,10.18
2022-10-26T18:19:15.025Z,11.52
2022-10-26T18:22:10.584Z,11.47
2022-10-26T18:25:04.328Z,11.55
2022-10-26T18:27:52.639Z,12.40
2022-10-26T18:30:43.295Z,11.27
2022-10-26T18:33:31.626Z,12.60
2022-10-26T18:36:19.698Z,11.63
2022-10-26T18:39:13.264Z,9.15
2022-10-26T18:42:01.591Z,10.40
2022-10-26T18:48:12.628Z,9.50
2022-10-26T18:51:10.806Z,9.15
2022-10-26T18:54:36.221Z,9.95
2022-10-26T18:57:27.224Z,9.45
2022-10-26T19:24:29.475Z,12.20
2022-10-26T19:27:20.572Z,12.50
2022-10-26T19:30:18.206Z,12.05
2022-10-26T19:33:09.876Z,12.73
2022-10-26T19:36:12.451Z,11.70
2022-10-26T19:44:41.089Z,10.90
2022-10-26T19:51:05.696Z,10.98
2022-10-26T19:54:26.872Z,10.48
2022-10-26T19:57:24.578Z,10.43
2022-10-26T20:00:15.606Z,10.00
2022-10-26T20:03:56.997Z,10.55
2022-10-26T20:07:03.261Z,10.10
2022-10-26T20:10:19.262Z,9.32
2022-10-26T20:16:27.581Z,10.02
2022-10-26T20:19:43.692Z,8.75
2022-10-26T20:31:06.654Z,9.88
2022-10-26T20:57:59.978Z,9.32
2022-10-26T21:01:01.224Z,9.52
2022-10-26T21:04:29.318Z,10.27
2022-10-26T21:10:58.733Z,12.38
2022-10-26T21:14:10.305Z,10.37
2022-10-26T21:17:00.598Z,11.82
2022-10-26T21:20:03.404Z,10.60
2022-10-26T21:22:54.188Z,11.63
2022-10-26T21:25:41.785Z,12.50
2022-10-26T21:28:41.779Z,11.85
2022-10-26T21:31:30.751Z,12.85
2022-10-26T21:34:21.747Z,13.85
2022-10-26T21:37:09.927Z,14.15
2022-10-26T21:39:58.322Z,12.13
2022-10-26T21:42:51.307Z,14.70
2022-10-26T21:45:40.148Z,14.48
2022-10-26T21:48:32.555Z,14.60
2022-10-26T21:51:21.587Z,14.10
2022-10-26T21:54:12.611Z,13.10
2022-10-26T21:57:00.695Z,14.68
2022-10-26T21:59:48.621Z,14.63
2022-10-26T22:02:38.759Z,14.38
2022-10-26T22:05:26.938Z,11.93
2022-10-26T22:08:15.075Z,15.85
2022-10-26T22:11:10.526Z,14.88
2022-10-26T22:14:03.653Z,15.93
2022-10-26T22:16:51.652Z,14.85
2022-10-26T22:19:39.989Z,15.70
2022-10-26T22:22:27.901Z,15.80
2022-10-26T22:25:15.954Z,13.45
2022-10-26T22:28:07.160Z,12.85
2022-10-26T22:30:55.262Z,11.45
2022-10-26T22:33:46.449Z,12.63
2022-10-26T22:36:37.655Z,12.65
2022-10-26T22:39:25.911Z,13.77
2022-10-26T22:42:13.689Z,11.52
2022-10-26T22:45:01.621Z,10.57
2022-10-26T22:48:21.489Z,12.63
2022-10-26T22:51:13.572Z,12.05
2022-10-26T22:54:03.553Z,12.23
2022-10-26T22:56:51.632Z,11.45
2022-10-26T22:59:39.579Z,13.05
2022-10-26T23:02:27.720Z,11.85
2022-10-26T23:05:15.782Z,10.35
2022-10-26T23:08:04.700Z,10.38
2022-10-26T23:10:52.434Z,11.60
2022-10-26T23:13:45.514Z,10.55
2022-10-26T23:16:33.354Z,10.98
2022-10-26T23:19:21.438Z,11.57
2022-10-26T23:22:09.504Z,12.48
2022-10-26T23:24:57.590Z,11.25
2022-10-26T23:27:45.360Z,9.57
2022-10-26T23:30:33.248Z,9.30
2022-10-26T23:33:21.395Z,11.30
2022-10-26T23:36:12.496Z,10.80
2022-10-26T23:39:02.037Z,10.27
2022-10-26T23:41:50.105Z,9.65
2022-10-26T23:44:38.260Z,10.48
2022-10-26T23:47:26.417Z,11.07
2022-10-26T23:50:14.737Z,11.73
2022-10-26T23:53:05.508Z,12.25
2022-10-26T23:55:53.875Z,12.15
2022-10-26T23:58:42.120Z,11.52
